sensor_id;sensor_type;location;lat;lon;timestamp;P1;durP1;ratioP1;P2;durP2;ratioP2
14599;SDS011;7386;45.586;12.854;2022-10-03T00:01:24;38.05;;;28.67;;
14599;SDS011;7386;45.586;12.854;2022-10-03T00:04:08;40.33;;;29.08;;
14599;SDS011;7386;45.586;12.854;2022-10-03T00:06:50;43.75;;;29.67;;
14599;SDS011;7386;45.586;12.854;2022-10-03T00:09:32;42.42;;;29.77;;
14599;SDS011;7386;45.586;12.854;2022-10-03T00:12:13;37.17;;;27.80;;
14599;SDS011;7386;45.586;12.854;2022-10-03T00:15:04;40.67;;;30.77;;
14599;SDS011;7386;45.586;12.854;2022-10-03T00:17:40;49.88;;;35.65;;
14599;SDS011;7386;45.586;12.854;2022-10-03T00:20:30;53.77;;;37.90;;
14599;SDS011;7386;45.586;12.854;2022-10-03T00:23:16;50.80;;;35.28;;
14599;SDS011;7386;45.586;12.854;2022-10-03T00:25:53;48.75;;;35.08;;
14599;SDS011;7386;45.586;12.854;2022-10-03T00:28:49;51.67;;;35.70;;
14599;SDS011;7386;45.586;12.854;2022-10-03T00:31:34;50.92;;;35.60;;
14599;SDS011;7386;45.586;12.854;2022-10-03T00:34:12;54.97;;;39.00;;
14599;SDS011;7386;45.586;12.854;2022-10-03T00:36:54;58.37;;;41.67;;
14599;SDS011;7386;45.586;12.854;2022-10-03T00:39:43;59.13;;;40.95;;
14599;SDS011;7386;45.586;12.854;2022-10-03T00:45:34;67.23;;;46.50;;
14599;SDS011;7386;45.586;12.854;2022-10-03T00:51:24;63.67;;;45.10;;
14599;SDS011;7386;45.586;12.854;2022-10-03T00:54:07;71.27;;;46.23;;
14599;SDS011;7386;45.586;12.854;2022-10-03T00:56:56;65.53;;;45.63;;
14599;SDS011;7386;45.586;12.854;2022-10-03T00:59:42;64.53;;;45.37;;
14599;SDS011;7386;45.586;12.854;2022-10-03T01:02:39;69.30;;;45.60;;
14599;SDS011;7386;45.586;12.854;2022-10-03T01:05:30;67.87;;;44.20;;
14599;SDS011;7386;45.586;12.854;2022-10-03T01:08:16;59.83;;;42.30;;
14599;SDS011;7386;45.586;12.854;2022-10-03T01:10:57;63.60;;;42.13;;
14599;SDS011;7386;45.586;12.854;2022-10-03T01:13:35;62.10;;;43.03;;
14599;SDS011;7386;45.586;12.854;2022-10-03T01:16:14;63.33;;;42.70;;
14599;SDS011;7386;45.586;12.854;2022-10-03T01:18:51;62.87;;;42.13;;
14599;SDS011;7386;45.586;12.854;2022-10-03T01:21:31;58.77;;;41.27;;
14599;SDS011;7386;45.586;12.854;2022-10-03T01:24:11;54.57;;;38.97;;
14599;SDS011;7386;45.586;12.854;2022-10-03T01:27:01;55.70;;;38.03;;
14599;SDS011;7386;45.586;12.854;2022-10-03T01:29:37;53.90;;;37.03;;
14599;SDS011;7386;45.586;12.854;2022-10-03T01:32:30;56.80;;;36.67;;
14599;SDS011;7386;45.586;12.854;2022-10-03T01:35:10;53.47;;;37.03;;
14599;SDS011;7386;45.586;12.854;2022-10-03T01:37:52;51.10;;;35.00;;
14599;SDS011;7386;45.586;12.854;2022-10-03T01:40:27;46.20;;;33.40;;
14599;SDS011;7386;45.586;12.854;2022-10-03T01:43:05;44.37;;;31.47;;
14599;SDS011;7386;45.586;12.854;2022-10-03T01:45:44;43.53;;;30.37;;
14599;SDS011;7386;45.586;12.854;2022-10-03T01:48:24;44.20;;;29.43;;
14599;SDS011;7386;45.586;12.854;2022-10-03T01:51:02;39.83;;;28.53;;
14599;SDS011;7386;45.586;12.854;2022-10-03T01:53:42;37.90;;;27.10;;
14599;SDS011;7386;45.586;12.854;2022-10-03T01:56:17;39.47;;;28.03;;
14599;SDS011;7386;45.586;12.854;2022-10-03T01:58:56;35.43;;;24.80;;
14599;SDS011;7386;45.586;12.854;2022-10-03T02:01:33;39.70;;;25.57;;
14599;SDS011;7386;45.586;12.854;2022-10-03T02:04:12;35.70;;;25.27;;
14599;SDS011;7386;45.586;12.854;2022-10-03T02:06:50;32.20;;;25.00;;
14599;SDS011;7386;45.586;12.854;2022-10-03T02:09:27;36.10;;;25.63;;
14599;SDS011;7386;45.586;12.854;2022-10-03T02:12:08;31.67;;;24.20;;
14599;SDS011;7386;45.586;12.854;2022-10-03T02:14:44;30.43;;;22.33;;
14599;SDS011;7386;45.586;12.854;2022-10-03T02:17:21;33.07;;;23.50;;
14599;SDS011;7386;45.586;12.854;2022-10-03T02:20:06;31.03;;;22.00;;
14599;SDS011;7386;45.586;12.854;2022-10-03T02:22:41;30.43;;;22.10;;
14599;SDS011;7386;45.586;12.854;2022-10-03T02:25:17;27.20;;;20.87;;
14599;SDS011;7386;45.586;12.854;2022-10-03T02:31:05;27.93;;;20.93;;
14599;SDS011;7386;45.586;12.854;2022-10-03T02:34:05;31.40;;;21.90;;
14599;SDS011;7386;45.586;12.854;2022-10-03T02:37:06;29.40;;;21.67;;
14599;SDS011;7386;45.586;12.854;2022-10-03T02:39:59;29.47;;;22.33;;
14599;SDS011;7386;45.586;12.854;2022-10-03T02:43:04;32.53;;;23.10;;
14599;SDS011;7386;45.586;12.854;2022-10-03T02:46:09;32.53;;;24.03;;
14599;SDS011;7386;45.586;12.854;2022-10-03T02:48:57;32.47;;;24.37;;
14599;SDS011;7386;45.586;12.854;2022-10-03T02:54:51;37.60;;;25.30;;
14599;SDS011;7386;45.586;12.854;2022-10-03T03:00:19;34.57;;;25.47;;
14599;SDS011;7386;45.586;12.854;2022-10-03T03:09:01;46.00;;;31.50;;
14599;SDS011;7386;45.586;12.854;2022-10-03T03:12:06;41.63;;;31.93;;
14599;SDS011;7386;45.586;12.854;2022-10-03T03:18:11;48.77;;;34.13;;
14599;SDS011;7386;45.586;12.854;2022-10-03T03:20:56;47.50;;;34.70;;
14599;SDS011;7386;45.586;12.854;2022-10-03T03:23:44;46.07;;;33.27;;
14599;SDS011;7386;45.586;12.854;2022-10-03T03:26:32;46.53;;;34.33;;
14599;SDS011;7386;45.586;12.854;2022-10-03T03:29:24;45.80;;;34.53;;
14599;SDS011;7386;45.586;12.854;2022-10-03T03:32:03;53.63;;;37.87;;
14599;SDS011;7386;45.586;12.854;2022-10-03T03:34:42;52.23;;;38.97;;
14599;SDS011;7386;45.586;12.854;2022-10-03T03:37:22;52.63;;;38.83;;
14599;SDS011;7386;45.586;12.854;2022-10-03T03:40:00;53.50;;;38.93;;
14599;SDS011;7386;45.586;12.854;2022-10-03T03:42:52;48.90;;;36.23;;
14599;SDS011;7386;45.586;12.854;2022-10-03T03:45:34;50.83;;;38.07;;
14599;SDS011;7386;45.586;12.854;2022-10-03T03:48:30;56.17;;;39.03;;
14599;SDS011;7386;45.586;12.854;2022-10-03T03:51:13;58.10;;;41.20;;
14599;SDS011;7386;45.586;12.854;2022-10-03T03:53:51;53.73;;;39.77;;
14599;SDS011;7386;45.586;12.854;2022-10-03T03:56:48;56.50;;;41.30;;
14599;SDS011;7386;45.586;12.854;2022-10-03T03:59:40;54.93;;;39.40;;
14599;SDS011;7386;45.586;12.854;2022-10-03T04:02:26;60.30;;;42.93;;
14599;SDS011;7386;45.586;12.854;2022-10-03T04:05:05;57.30;;;41.97;;
14599;SDS011;7386;45.586;12.854;2022-10-03T04:07:51;59.47;;;42.80;;
14599;SDS011;7386;45.586;12.854;2022-10-03T04:10:41;61.03;;;42.63;;
14599;SDS011;7386;45.586;12.854;2022-10-03T04:13:24;62.23;;;42.53;;
14599;SDS011;7386;45.586;12.854;2022-10-03T04:16:22;61.40;;;42.60;;
14599;SDS011;7386;45.586;12.854;2022-10-03T04:19:22;58.50;;;41.33;;
14599;SDS011;7386;45.586;12.854;2022-10-03T04:25:00;57.93;;;40.03;;
14599;SDS011;7386;45.586;12.854;2022-10-03T04:27:50;57.30;;;41.20;;
14599;SDS011;7386;45.586;12.854;2022-10-03T04:30:32;54.17;;;40.50;;
14599;SDS011;7386;45.586;12.854;2022-10-03T04:33:20;54.23;;;41.03;;
14599;SDS011;7386;45.586;12.854;2022-10-03T04:39:05;61.40;;;42.23;;
14599;SDS011;7386;45.586;12.854;2022-10-03T04:41:43;58.70;;;40.63;;
14599;SDS011;7386;45.586;12.854;2022-10-03T04:44:24;59.20;;;41.97;;
14599;SDS011;7386;45.586;12.854;2022-10-03T04:47:01;58.00;;;40.70;;
14599;SDS011;7386;45.586;12.854;2022-10-03T04:49:36;62.00;;;43.53;;
14599;SDS011;7386;45.586;12.854;2022-10-03T04:52:13;60.10;;;41.27;;
14599;SDS011;7386;45.586;12.854;2022-10-03T04:54:50;58.50;;;41.73;;
14599;SDS011;7386;45.586;12.854;2022-10-03T04:57:29;53.37;;;39.07;;
14599;SDS011;7386;45.586;12.854;2022-10-03T05:00:05;56.83;;;40.37;;
14599;SDS011;7386;45.586;12.854;2022-10-03T05:02:51;59.23;;;39.27;;
14599;SDS011;7386;45.586;12.854;2022-10-03T05:05:28;57.97;;;40.70;;
14599;SDS011;7386;45.586;12.854;2022-10-03T05:08:13;55.60;;;40.03;;
14599;SDS011;7386;45.586;12.854;2022-10-03T05:13:43;51.60;;;39.00;;
14599;SDS011;7386;45.586;12.854;2022-10-03T05:16:23;54.70;;;38.07;;
14599;SDS011;7386;45.586;12.854;2022-10-03T05:19:01;53.57;;;38.13;;
14599;SDS011;7386;45.586;12.854;2022-10-03T05:21:47;54.80;;;37.90;;
14599;SDS011;7386;45.586;12.854;2022-10-03T05:24:23;51.53;;;37.57;;
14599;SDS011;7386;45.586;12.854;2022-10-03T05:27:10;52.90;;;37.90;;
14599;SDS011;7386;45.586;12.854;2022-10-03T05:29:48;51.80;;;37.43;;
14599;SDS011;7386;45.586;12.854;2022-10-03T05:32:24;53.00;;;36.93;;
14599;SDS011;7386;45.586;12.854;2022-10-03T05:35:11;52.93;;;37.83;;
14599;SDS011;7386;45.586;12.854;2022-10-03T05:38:06;51.17;;;37.37;;
14599;SDS011;7386;45.586;12.854;2022-10-03T05:40:59;56.13;;;38.97;;
14599;SDS011;7386;45.586;12.854;2022-10-03T05:43:41;54.50;;;39.10;;
14599;SDS011;7386;45.586;12.854;2022-10-03T05:46:18;52.63;;;38.03;;
14599;SDS011;7386;45.586;12.854;2022-10-03T05:48:55;48.37;;;35.73;;
14599;SDS011;7386;45.586;12.854;2022-10-03T05:51:44;47.23;;;34.57;;
14599;SDS011;7386;45.586;12.854;2022-10-03T05:54:52;45.53;;;32.87;;
14599;SDS011;7386;45.586;12.854;2022-10-03T05:57:34;46.93;;;35.23;;
14599;SDS011;7386;45.586;12.854;2022-10-03T06:00:23;51.33;;;36.43;;
14599;SDS011;7386;45.586;12.854;2022-10-03T06:03:09;46.70;;;35.07;;
14599;SDS011;7386;45.586;12.854;2022-10-03T06:05:59;48.83;;;36.23;;
14599;SDS011;7386;45.586;12.854;2022-10-03T06:17:27;52.57;;;35.50;;
14599;SDS011;7386;45.586;12.854;2022-10-03T06:20:15;45.27;;;34.33;;
14599;SDS011;7386;45.586;12.854;2022-10-03T06:23:16;47.13;;;33.77;;
14599;SDS011;7386;45.586;12.854;2022-10-03T06:26:24;47.87;;;32.53;;
14599;SDS011;7386;45.586;12.854;2022-10-03T06:29:18;44.60;;;31.20;;
14599;SDS011;7386;45.586;12.854;2022-10-03T06:38:27;31.97;;;23.40;;
14599;SDS011;7386;45.586;12.854;2022-10-03T06:44:25;26.23;;;20.10;;
14599;SDS011;7386;45.586;12.854;2022-10-03T06:47:09;24.70;;;18.83;;
14599;SDS011;7386;45.586;12.854;2022-10-03T06:53:07;24.83;;;19.00;;
14599;SDS011;7386;45.586;12.854;2022-10-03T06:55:50;24.03;;;17.93;;
14599;SDS011;7386;45.586;12.854;2022-10-03T07:04:47;22.93;;;18.37;;
14599;SDS011;7386;45.586;12.854;2022-10-03T07:11:04;21.60;;;18.00;;
14599;SDS011;7386;45.586;12.854;2022-10-03T07:17:11;20.30;;;15.90;;
14599;SDS011;7386;45.586;12.854;2022-10-03T07:20:06;19.20;;;15.37;;
14599;SDS011;7386;45.586;12.854;2022-10-03T07:23:08;15.30;;;13.17;;
14599;SDS011;7386;45.586;12.854;2022-10-03T07:29:16;15.53;;;12.50;;
14599;SDS011;7386;45.586;12.854;2022-10-03T07:31:52;15.80;;;13.97;;
14599;SDS011;7386;45.586;12.854;2022-10-03T07:41:18;13.57;;;10.97;;
14599;SDS011;7386;45.586;12.854;2022-10-03T07:44:05;13.40;;;11.43;;
14599;SDS011;7386;45.586;12.854;2022-10-03T07:47:28;15.33;;;13.17;;
14599;SDS011;7386;45.586;12.854;2022-10-03T07:50:35;14.85;;;12.07;;
14599;SDS011;7386;45.586;12.854;2022-10-03T07:53:39;15.05;;;12.63;;
14599;SDS011;7386;45.586;12.854;2022-10-03T07:56:42;16.30;;;12.82;;
14599;SDS011;7386;45.586;12.854;2022-10-03T07:59:35;13.93;;;11.65;;
14599;SDS011;7386;45.586;12.854;2022-10-03T08:02:24;16.92;;;13.10;;
14599;SDS011;7386;45.586;12.854;2022-10-03T08:05:16;13.68;;;11.23;;
14599;SDS011;7386;45.586;12.854;2022-10-03T08:08:01;11.32;;;9.98;;
14599;SDS011;7386;45.586;12.854;2022-10-03T08:11:07;16.20;;;10.80;;
14599;SDS011;7386;45.586;12.854;2022-10-03T08:13:59;11.50;;;10.30;;
14599;SDS011;7386;45.586;12.854;2022-10-03T08:16:50;12.55;;;9.50;;
14599;SDS011;7386;45.586;12.854;2022-10-03T08:19:49;12.70;;;9.88;;
14599;SDS011;7386;45.586;12.854;2022-10-03T08:22:41;10.57;;;9.13;;
14599;SDS011;7386;45.586;12.854;2022-10-03T08:25:26;13.57;;;10.30;;
14599;SDS011;7386;45.586;12.854;2022-10-03T08:34:47;27.75;;;14.32;;
14599;SDS011;7386;45.586;12.854;2022-10-03T08:50:28;14.88;;;8.43;;
14599;SDS011;7386;45.586;12.854;2022-10-03T08:56:16;13.60;;;8.30;;
14599;SDS011;7386;45.586;12.854;2022-10-03T08:59:12;9.45;;;7.88;;
14599;SDS011;7386;45.586;12.854;2022-10-03T09:02:16;9.95;;;8.05;;
14599;SDS011;7386;45.586;12.854;2022-10-03T09:05:20;7.70;;;6.90;;
14599;SDS011;7386;45.586;12.854;2022-10-03T09:08:30;9.45;;;7.53;;
14599;SDS011;7386;45.586;12.854;2022-10-03T09:11:29;10.77;;;7.47;;
14599;SDS011;7386;45.586;12.854;2022-10-03T09:14:31;8.43;;;6.30;;
14599;SDS011;7386;45.586;12.854;2022-10-03T09:17:31;7.07;;;6.22;;
14599;SDS011;7386;45.586;12.854;2022-10-03T09:23:48;7.40;;;6.00;;
14599;SDS011;7386;45.586;12.854;2022-10-03T09:26:57;6.53;;;5.53;;
14599;SDS011;7386;45.586;12.854;2022-10-03T09:36:10;10.93;;;5.47;;
14599;SDS011;7386;45.586;12.854;2022-10-03T09:42:03;6.25;;;4.93;;
14599;SDS011;7386;45.586;12.854;2022-10-03T09:48:17;7.10;;;5.32;;
14599;SDS011;7386;45.586;12.854;2022-10-03T09:51:01;8.52;;;5.13;;
14599;SDS011;7386;45.586;12.854;2022-10-03T09:53:42;6.75;;;5.10;;
14599;SDS011;7386;45.586;12.854;2022-10-03T09:59:53;6.75;;;4.72;;
14599;SDS011;7386;45.586;12.854;2022-10-03T10:02:52;7.10;;;4.47;;
14599;SDS011;7386;45.586;12.854;2022-10-03T10:12:21;6.40;;;4.80;;
14599;SDS011;7386;45.586;12.854;2022-10-03T10:18:26;5.20;;;4.70;;
14599;SDS011;7386;45.586;12.854;2022-10-03T10:31:16;6.63;;;4.47;;
14599;SDS011;7386;45.586;12.854;2022-10-03T10:37:26;5.95;;;4.60;;
14599;SDS011;7386;45.586;12.854;2022-10-03T10:43:52;6.90;;;5.00;;
14599;SDS011;7386;45.586;12.854;2022-10-03T10:47:03;5.43;;;4.55;;
14599;SDS011;7386;45.586;12.854;2022-10-03T10:52:49;5.38;;;4.72;;
14599;SDS011;7386;45.586;12.854;2022-10-03T10:59:18;6.57;;;4.90;;
14599;SDS011;7386;45.586;12.854;2022-10-03T11:02:39;5.15;;;4.60;;
14599;SDS011;7386;45.586;12.854;2022-10-03T11:05:38;5.72;;;4.38;;
14599;SDS011;7386;45.586;12.854;2022-10-03T11:08:40;5.00;;;4.40;;
14599;SDS011;7386;45.586;12.854;2022-10-03T11:14:46;7.75;;;4.35;;
14599;SDS011;7386;45.586;12.854;2022-10-03T11:18:15;5.65;;;4.20;;
14599;SDS011;7386;45.586;12.854;2022-10-03T11:24:15;4.97;;;4.47;;
14599;SDS011;7386;45.586;12.854;2022-10-03T11:27:38;6.80;;;4.05;;
14599;SDS011;7386;45.586;12.854;2022-10-03T11:30:40;4.80;;;4.30;;
14599;SDS011;7386;45.586;12.854;2022-10-03T11:37:06;5.80;;;4.40;;
14599;SDS011;7386;45.586;12.854;2022-10-03T11:39:40;5.18;;;4.25;;
14599;SDS011;7386;45.586;12.854;2022-10-03T11:42:19;5.57;;;4.45;;
14599;SDS011;7386;45.586;12.854;2022-10-03T11:44:56;6.32;;;4.15;;
14599;SDS011;7386;45.586;12.854;2022-10-03T11:47:41;6.22;;;4.57;;
14599;SDS011;7386;45.586;12.854;2022-10-03T11:50:27;4.57;;;4.18;;
14599;SDS011;7386;45.586;12.854;2022-10-03T11:53:07;5.07;;;4.40;;
14599;SDS011;7386;45.586;12.854;2022-10-03T11:55:40;5.03;;;4.40;;
14599;SDS011;7386;45.586;12.854;2022-10-03T11:58:27;5.85;;;4.55;;
14599;SDS011;7386;45.586;12.854;2022-10-03T12:01:07;4.93;;;4.43;;
14599;SDS011;7386;45.586;12.854;2022-10-03T12:03:55;5.70;;;4.75;;
14599;SDS011;7386;45.586;12.854;2022-10-03T12:06:36;4.70;;;4.20;;
14599;SDS011;7386;45.586;12.854;2022-10-03T12:09:45;6.03;;;4.88;;
14599;SDS011;7386;45.586;12.854;2022-10-03T12:12:25;4.93;;;4.43;;
14599;SDS011;7386;45.586;12.854;2022-10-03T12:15:02;7.00;;;5.07;;
14599;SDS011;7386;45.586;12.854;2022-10-03T12:17:44;8.60;;;4.95;;
14599;SDS011;7386;45.586;12.854;2022-10-03T12:20:24;5.88;;;4.53;;
14599;SDS011;7386;45.586;12.854;2022-10-03T12:23:01;7.18;;;5.05;;
14599;SDS011;7386;45.586;12.854;2022-10-03T12:25:36;7.03;;;4.60;;
14599;SDS011;7386;45.586;12.854;2022-10-03T12:28:09;7.25;;;5.20;;
14599;SDS011;7386;45.586;12.854;2022-10-03T12:30:46;6.40;;;4.80;;
14599;SDS011;7386;45.586;12.854;2022-10-03T12:33:35;5.43;;;4.93;;
14599;SDS011;7386;45.586;12.854;2022-10-03T12:36:14;6.72;;;4.75;;
14599;SDS011;7386;45.586;12.854;2022-10-03T12:38:51;6.03;;;4.50;;
14599;SDS011;7386;45.586;12.854;2022-10-03T12:41:34;6.60;;;4.32;;
14599;SDS011;7386;45.586;12.854;2022-10-03T12:44:23;5.43;;;4.50;;
14599;SDS011;7386;45.586;12.854;2022-10-03T12:47:05;6.25;;;4.55;;
14599;SDS011;7386;45.586;12.854;2022-10-03T12:50:10;4.82;;;4.30;;
14599;SDS011;7386;45.586;12.854;2022-10-03T12:52:52;7.45;;;4.65;;
14599;SDS011;7386;45.586;12.854;2022-10-03T12:55:33;5.18;;;4.50;;
14599;SDS011;7386;45.586;12.854;2022-10-03T12:58:04;6.53;;;4.70;;
14599;SDS011;7386;45.586;12.854;2022-10-03T13:00:44;5.38;;;4.82;;
14599;SDS011;7386;45.586;12.854;2022-10-03T13:03:24;6.65;;;4.28;;
14599;SDS011;7386;45.586;12.854;2022-10-03T13:06:17;5.18;;;4.45;;
14599;SDS011;7386;45.586;12.854;2022-10-03T13:09:20;4.75;;;4.22;;
14599;SDS011;7386;45.586;12.854;2022-10-03T13:11:57;5.45;;;4.38;;
14599;SDS011;7386;45.586;12.854;2022-10-03T13:14:36;8.23;;;4.50;;
14599;SDS011;7386;45.586;12.854;2022-10-03T13:17:30;5.20;;;4.70;;
14599;SDS011;7386;45.586;12.854;2022-10-03T13:20:09;5.68;;;4.47;;
14599;SDS011;7386;45.586;12.854;2022-10-03T13:22:47;6.60;;;5.15;;
14599;SDS011;7386;45.586;12.854;2022-10-03T13:25:26;5.93;;;5.15;;
14599;SDS011;7386;45.586;12.854;2022-10-03T13:28:00;7.20;;;5.35;;
14599;SDS011;7386;45.586;12.854;2022-10-03T13:30:42;5.63;;;5.00;;
14599;SDS011;7386;45.586;12.854;2022-10-03T13:33:15;6.05;;;5.07;;
14599;SDS011;7386;45.586;12.854;2022-10-03T13:35:46;5.15;;;4.65;;
14599;SDS011;7386;45.586;12.854;2022-10-03T13:41:30;5.88;;;4.50;;
14599;SDS011;7386;45.586;12.854;2022-10-03T13:44:30;5.03;;;4.53;;
14599;SDS011;7386;45.586;12.854;2022-10-03T13:47:08;4.45;;;4.05;;
14599;SDS011;7386;45.586;12.854;2022-10-03T13:49:48;5.80;;;4.65;;
14599;SDS011;7386;45.586;12.854;2022-10-03T13:52:21;4.97;;;4.40;;
14599;SDS011;7386;45.586;12.854;2022-10-03T13:57:56;14.50;;;7.15;;
14599;SDS011;7386;45.586;12.854;2022-10-03T14:00:34;41.28;;;14.23;;
14599;SDS011;7386;45.586;12.854;2022-10-03T14:03:20;55.42;;;18.33;;
14599;SDS011;7386;45.586;12.854;2022-10-03T14:05:56;51.30;;;16.65;;
14599;SDS011;7386;45.586;12.854;2022-10-03T14:08:41;39.10;;;13.55;;
14599;SDS011;7386;45.586;12.854;2022-10-03T14:11:23;28.40;;;11.05;;
14599;SDS011;7386;45.586;12.854;2022-10-03T14:14:05;23.10;;;9.52;;
14599;SDS011;7386;45.586;12.854;2022-10-03T14:17:01;18.55;;;7.78;;
14599;SDS011;7386;45.586;12.854;2022-10-03T14:19:38;17.27;;;6.82;;
14599;SDS011;7386;45.586;12.854;2022-10-03T14:22:29;9.50;;;5.85;;
14599;SDS011;7386;45.586;12.854;2022-10-03T14:25:20;8.15;;;5.57;;
14599;SDS011;7386;45.586;12.854;2022-10-03T14:27:52;8.02;;;5.15;;
14599;SDS011;7386;45.586;12.854;2022-10-03T14:30:26;6.40;;;4.70;;
14599;SDS011;7386;45.586;12.854;2022-10-03T14:33:00;5.47;;;4.80;;
14599;SDS011;7386;45.586;12.854;2022-10-03T14:35:42;6.90;;;4.40;;
14599;SDS011;7386;45.586;12.854;2022-10-03T14:41:33;7.43;;;4.63;;
14599;SDS011;7386;45.586;12.854;2022-10-03T14:44:11;5.50;;;4.63;;
14599;SDS011;7386;45.586;12.854;2022-10-03T14:46:47;5.38;;;4.28;;
14599;SDS011;7386;45.586;12.854;2022-10-03T14:49:19;5.63;;;4.80;;
14599;SDS011;7386;45.586;12.854;2022-10-03T14:52:15;5.32;;;4.13;;
14599;SDS011;7386;45.586;12.854;2022-10-03T14:54:50;5.57;;;4.00;;
14599;SDS011;7386;45.586;12.854;2022-10-03T14:57:25;5.70;;;4.25;;
14599;SDS011;7386;45.586;12.854;2022-10-03T15:00:22;8.15;;;4.88;;
14599;SDS011;7386;45.586;12.854;2022-10-03T15:02:54;4.75;;;4.25;;
14599;SDS011;7386;45.586;12.854;2022-10-03T15:05:31;5.30;;;4.35;;
14599;SDS011;7386;45.586;12.854;2022-10-03T15:08:00;4.93;;;3.80;;
14599;SDS011;7386;45.586;12.854;2022-10-03T15:10:37;5.00;;;4.03;;
14599;SDS011;7386;45.586;12.854;2022-10-03T15:13:06;4.70;;;3.90;;
14599;SDS011;7386;45.586;12.854;2022-10-03T15:15:36;6.32;;;3.97;;
14599;SDS011;7386;45.586;12.854;2022-10-03T15:18:12;5.20;;;3.85;;
14599;SDS011;7386;45.586;12.854;2022-10-03T15:20:43;5.07;;;3.72;;
14599;SDS011;7386;45.586;12.854;2022-10-03T15:23:17;4.05;;;3.65;;
14599;SDS011;7386;45.586;12.854;2022-10-03T15:25:48;4.28;;;3.88;;
14599;SDS011;7386;45.586;12.854;2022-10-03T15:28:20;6.05;;;3.88;;
14599;SDS011;7386;45.586;12.854;2022-10-03T15:30:53;4.32;;;3.72;;
14599;SDS011;7386;45.586;12.854;2022-10-03T15:33:27;3.90;;;3.60;;
14599;SDS011;7386;45.586;12.854;2022-10-03T15:35:59;4.35;;;3.70;;
14599;SDS011;7386;45.586;12.854;2022-10-03T15:38:33;4.47;;;3.63;;
14599;SDS011;7386;45.586;12.854;2022-10-03T15:41:06;5.50;;;3.70;;
14599;SDS011;7386;45.586;12.854;2022-10-03T15:43:40;7.18;;;4.13;;
14599;SDS011;7386;45.586;12.854;2022-10-03T15:46:18;4.20;;;3.78;;
14599;SDS011;7386;45.586;12.854;2022-10-03T15:48:57;4.55;;;3.70;;
14599;SDS011;7386;45.586;12.854;2022-10-03T15:51:27;4.97;;;3.92;;
14599;SDS011;7386;45.586;12.854;2022-10-03T15:53:58;4.05;;;3.65;;
14599;SDS011;7386;45.586;12.854;2022-10-03T15:56:28;4.68;;;4.00;;
14599;SDS011;7386;45.586;12.854;2022-10-03T15:59:01;5.30;;;4.32;;
14599;SDS011;7386;45.586;12.854;2022-10-03T16:01:34;4.38;;;3.85;;
14599;SDS011;7386;45.586;12.854;2022-10-03T16:04:11;4.28;;;3.88;;
14599;SDS011;7386;45.586;12.854;2022-10-03T16:06:45;4.00;;;3.60;;
14599;SDS011;7386;45.586;12.854;2022-10-03T16:09:24;5.22;;;3.90;;
14599;SDS011;7386;45.586;12.854;2022-10-03T16:11:59;4.35;;;3.95;;
14599;SDS011;7386;45.586;12.854;2022-10-03T16:14:39;4.03;;;3.63;;
14599;SDS011;7386;45.586;12.854;2022-10-03T16:17:13;4.82;;;3.70;;
14599;SDS011;7386;45.586;12.854;2022-10-03T16:19:48;6.18;;;4.20;;
14599;SDS011;7386;45.586;12.854;2022-10-03T16:22:21;6.03;;;3.90;;
14599;SDS011;7386;45.586;12.854;2022-10-03T16:25:00;4.07;;;3.67;;
14599;SDS011;7386;45.586;12.854;2022-10-03T16:27:38;4.15;;;3.75;;
14599;SDS011;7386;45.586;12.854;2022-10-03T16:30:15;5.00;;;4.00;;
14599;SDS011;7386;45.586;12.854;2022-10-03T16:32:49;4.65;;;4.00;;
14599;SDS011;7386;45.586;12.854;2022-10-03T16:35:31;5.05;;;4.43;;
14599;SDS011;7386;45.586;12.854;2022-10-03T16:38:03;4.45;;;4.00;;
14599;SDS011;7386;45.586;12.854;2022-10-03T16:40:35;4.85;;;3.95;;
14599;SDS011;7386;45.586;12.854;2022-10-03T16:43:04;4.80;;;3.85;;
14599;SDS011;7386;45.586;12.854;2022-10-03T16:45:38;4.63;;;4.15;;
14599;SDS011;7386;45.586;12.854;2022-10-03T16:48:11;4.25;;;3.85;;
14599;SDS011;7386;45.586;12.854;2022-10-03T16:51:04;4.68;;;4.00;;
14599;SDS011;7386;45.586;12.854;2022-10-03T16:53:40;5.30;;;4.22;;
14599;SDS011;7386;45.586;12.854;2022-10-03T16:56:12;4.18;;;3.78;;
14599;SDS011;7386;45.586;12.854;2022-10-03T16:58:42;5.07;;;3.90;;
14599;SDS011;7386;45.586;12.854;2022-10-03T17:01:21;5.25;;;3.95;;
14599;SDS011;7386;45.586;12.854;2022-10-03T17:04:10;4.38;;;3.80;;
14599;SDS011;7386;45.586;12.854;2022-10-03T17:06:45;4.78;;;3.90;;
14599;SDS011;7386;45.586;12.854;2022-10-03T17:09:17;4.47;;;4.03;;
14599;SDS011;7386;45.586;12.854;2022-10-03T17:12:02;4.38;;;3.80;;
14599;SDS011;7386;45.586;12.854;2022-10-03T17:14:34;8.25;;;4.38;;
14599;SDS011;7386;45.586;12.854;2022-10-03T17:17:11;4.80;;;4.30;;
14599;SDS011;7386;45.586;12.854;2022-10-03T17:19:55;4.65;;;4.18;;
14599;SDS011;7386;45.586;12.854;2022-10-03T17:22:31;4.43;;;3.90;;
14599;SDS011;7386;45.586;12.854;2022-10-03T17:25:04;4.57;;;4.18;;
14599;SDS011;7386;45.586;12.854;2022-10-03T17:27:54;4.82;;;4.32;;
14599;SDS011;7386;45.586;12.854;2022-10-03T17:30:26;5.55;;;4.18;;
14599;SDS011;7386;45.586;12.854;2022-10-03T17:33:01;4.22;;;3.83;;
14599;SDS011;7386;45.586;12.854;2022-10-03T17:35:35;5.15;;;4.40;;
14599;SDS011;7386;45.586;12.854;2022-10-03T17:38:12;5.00;;;4.50;;
14599;SDS011;7386;45.586;12.854;2022-10-03T17:41:11;4.82;;;4.32;;
14599;SDS011;7386;45.586;12.854;2022-10-03T17:43:44;5.28;;;4.22;;
14599;SDS011;7386;45.586;12.854;2022-10-03T17:46:17;4.65;;;4.25;;
14599;SDS011;7386;45.586;12.854;2022-10-03T17:48:51;4.93;;;4.43;;
14599;SDS011;7386;45.586;12.854;2022-10-03T17:51:29;4.53;;;4.10;;
14599;SDS011;7386;45.586;12.854;2022-10-03T17:54:04;5.68;;;5.03;;
14599;SDS011;7386;45.586;12.854;2022-10-03T17:56:39;5.32;;;4.82;;
14599;SDS011;7386;45.586;12.854;2022-10-03T17:59:12;5.57;;;5.03;;
14599;SDS011;7386;45.586;12.854;2022-10-03T18:01:46;6.35;;;5.10;;
14599;SDS011;7386;45.586;12.854;2022-10-03T18:04:19;5.72;;;4.82;;
14599;SDS011;7386;45.586;12.854;2022-10-03T18:06:54;6.80;;;4.47;;
14599;SDS011;7386;45.586;12.854;2022-10-03T18:09:27;5.55;;;4.72;;
14599;SDS011;7386;45.586;12.854;2022-10-03T18:12:01;5.28;;;4.65;;
14599;SDS011;7386;45.586;12.854;2022-10-03T18:14:49;5.38;;;4.75;;
14599;SDS011;7386;45.586;12.854;2022-10-03T18:17:46;5.78;;;5.22;;
14599;SDS011;7386;45.586;12.854;2022-10-03T18:20:30;6.28;;;5.40;;
14599;SDS011;7386;45.586;12.854;2022-10-03T18:23:09;6.07;;;5.38;;
14599;SDS011;7386;45.586;12.854;2022-10-03T18:26:09;6.70;;;5.70;;
14599;SDS011;7386;45.586;12.854;2022-10-03T18:28:46;5.35;;;4.85;;
14599;SDS011;7386;45.586;12.854;2022-10-03T18:31:21;7.45;;;5.20;;
14599;SDS011;7386;45.586;12.854;2022-10-03T18:33:52;6.15;;;5.30;;
14599;SDS011;7386;45.586;12.854;2022-10-03T18:36:24;5.80;;;5.20;;
14599;SDS011;7386;45.586;12.854;2022-10-03T18:38:56;6.22;;;5.63;;
14599;SDS011;7386;45.586;12.854;2022-10-03T18:41:27;7.13;;;5.70;;
14599;SDS011;7386;45.586;12.854;2022-10-03T18:43:56;8.05;;;6.35;;
14599;SDS011;7386;45.586;12.854;2022-10-03T18:46:27;8.70;;;6.25;;
14599;SDS011;7386;45.586;12.854;2022-10-03T18:49:03;7.53;;;6.18;;
14599;SDS011;7386;45.586;12.854;2022-10-03T18:52:03;9.07;;;6.85;;
14599;SDS011;7386;45.586;12.854;2022-10-03T18:54:38;8.23;;;7.22;;
14599;SDS011;7386;45.586;12.854;2022-10-03T18:57:19;11.85;;;6.82;;
14599;SDS011;7386;45.586;12.854;2022-10-03T18:59:52;7.28;;;6.57;;
14599;SDS011;7386;45.586;12.854;2022-10-03T19:02:29;7.55;;;6.72;;
14599;SDS011;7386;45.586;12.854;2022-10-03T19:05:03;8.70;;;7.28;;